Time;durP1;ratioP1;P1;durP2;ratioP2;P2;SDS_P1;SDS_P2;PMS_P1;PMS_P2;Temp;Humidity;BMP_temperature;BMP_pressure;BME280_temperature;BME280_humidity;BME280_pressure;Samples;Min_cycle;Max_cycle;Signal;HPM_P1;HPM_P2
2023/02/09 00:01:11;;;;;;;13.00;8.83;;;0.40;99.90;;;;;;5033338;28;20541;-66
2023/02/09 00:03:41;;;;;;;12.43;8.00;;;0.40;99.90;;;;;;5033318;28;20480;-66
2023/02/09 00:06:10;;;;;;;11.80;8.13;;;0.30;99.90;;;;;;5033176;28;20528;-65
2023/02/09 00:08:37;;;;;;;14.63;9.93;;;0.30;99.90;;;;;;5033071;28;20470;-66
2023/02/09 00:11:08;;;;;;;11.93;8.60;;;0.30;99.90;;;;;;5032797;28;20431;-65
2023/02/09 00:13:35;;;;;;;12.80;9.30;;;0.30;99.90;;;;;;5030885;28;20501;-65
2023/02/09 00:16:04;;;;;;;15.93;9.90;;;0.20;99.90;;;;;;5032532;28;20454;-65
2023/02/09 00:18:34;;;;;;;11.40;8.10;;;0.30;99.90;;;;;;5032095;28;20547;-65
2023/02/09 00:21:03;;;;;;;10.70;8.30;;;0.40;99.90;;;;;;5033634;28;20460;-65
2023/02/09 00:23:32;;;;;;;10.93;7.83;;;0.40;99.90;;;;;;5034019;28;20534;-65
2023/02/09 00:26:01;;;;;;;12.33;8.67;;;0.40;99.90;;;;;;5034169;28;20795;-65
2023/02/09 00:28:29;;;;;;;17.67;8.73;;;0.30;99.90;;;;;;5034629;28;20823;-65
2023/02/09 00:30:56;;;;;;;13.10;9.00;;;0.40;99.90;;;;;;5034500;28;20555;-65
2023/02/09 00:33:25;;;;;;;13.30;8.43;;;0.30;99.90;;;;;;5034358;28;20945;-65
2023/02/09 00:35:52;;;;;;;13.60;8.53;;;0.30;99.90;;;;;;5033945;28;20517;-65
2023/02/09 00:38:20;;;;;;;13.07;8.23;;;0.30;99.90;;;;;;5034177;28;20933;-66
2023/02/09 00:40:48;;;;;;;13.03;8.60;;;0.20;99.90;;;;;;5033492;28;20564;-64
2023/02/09 00:43:16;;;;;;;13.50;8.90;;;0.30;99.90;;;;;;5033990;28;20771;-65
2023/02/09 00:45:43;;;;;;;17.60;9.83;;;0.20;99.90;;;;;;5033804;28;20468;-65
2023/02/09 00:48:10;;;;;;;12.30;8.60;;;0.10;99.90;;;;;;5034067;28;20949;-65
2023/02/09 00:50:39;;;;;;;12.87;8.63;;;0.10;99.90;;;;;;5033783;28;20560;-65
2023/02/09 00:53:07;;;;;;;13.27;8.67;;;0.20;99.90;;;;;;5033618;28;20512;-65
2023/02/09 00:55:35;;;;;;;12.50;9.37;;;0.10;99.90;;;;;;5033564;28;20521;-65
2023/02/09 00:58:02;;;;;;;14.50;9.87;;;0.10;99.90;;;;;;5033134;28;20470;-65
2023/02/09 01:00:29;;;;;;;14.80;8.90;;;0.10;99.90;;;;;;5033505;28;20557;-66
2023/02/09 01:02:57;;;;;;;13.93;8.77;;;0.10;99.90;;;;;;5033987;28;20466;-66
2023/02/09 01:05:24;;;;;;;14.00;9.90;;;0.10;99.90;;;;;;5033793;28;20582;-66
2023/02/09 01:07:54;;;;;;;14.27;9.93;;;0.00;99.90;;;;;;5034299;28;20913;-66
2023/02/09 01:10:22;;;;;;;12.70;9.00;;;0.00;99.90;;;;;;5037020;28;20568;-67
2023/02/09 01:12:49;;;;;;;14.50;10.03;;;-0.10;99.90;;;;;;5037190;28;20509;-66
2023/02/09 01:15:17;;;;;;;14.20;9.23;;;0.00;99.90;;;;;;5037228;28;20540;-66
2023/02/09 01:17:44;;;;;;;15.63;9.83;;;0.00;99.90;;;;;;5036857;28;20995;-66
2023/02/09 01:20:13;;;;;;;12.70;9.43;;;0.00;99.90;;;;;;5036948;28;20501;-66
2023/02/09 01:22:41;;;;;;;14.27;10.23;;;0.00;99.90;;;;;;5037097;28;20556;-66
2023/02/09 01:25:11;;;;;;;14.60;9.10;;;0.00;99.90;;;;;;5037161;28;20593;-66
2023/02/09 01:27:39;;;;;;;15.13;10.10;;;0.00;99.90;;;;;;5036924;28;20527;-66
2023/02/09 01:30:07;;;;;;;13.37;9.63;;;0.10;99.90;;;;;;5036695;28;20475;-67
2023/02/09 01:32:36;;;;;;;17.60;10.13;;;0.00;99.90;;;;;;5036735;28;20546;-66
2023/02/09 01:35:03;;;;;;;15.30;9.77;;;0.00;99.90;;;;;;5037037;28;20466;-66
2023/02/09 01:37:33;;;;;;;16.50;9.33;;;0.00;99.90;;;;;;5036802;28;20563;-66
2023/02/09 01:40:00;;;;;;;14.57;9.00;;;0.00;99.90;;;;;;5036648;28;20772;-66
2023/02/09 01:42:29;;;;;;;20.50;10.07;;;-0.10;99.90;;;;;;5036879;28;20769;-66
2023/02/09 01:45:17;;;;;;;14.40;10.20;;;-0.10;99.90;;;;;;5036905;28;20489;-66
2023/02/09 01:47:49;;;;;;;15.60;10.33;;;-0.20;99.90;;;;;;5036726;28;20800;-66
2023/02/09 01:50:17;;;;;;;14.00;9.87;;;-0.20;99.90;;;;;;5036704;28;20488;-67
2023/02/09 01:52:46;;;;;;;14.80;9.80;;;-0.20;99.90;;;;;;5036391;27;20471;-66
2023/02/09 01:55:18;;;;;;;14.90;9.47;;;-0.20;99.90;;;;;;5036433;28;20566;-66
2023/02/09 01:57:51;;;;;;;17.17;10.03;;;-0.30;99.90;;;;;;5036367;28;20513;-66
2023/02/09 02:00:21;;;;;;;13.20;9.67;;;-0.30;99.90;;;;;;5036320;28;20526;-66
2023/02/09 02:02:52;;;;;;;14.40;10.03;;;-0.30;99.90;;;;;;5035604;28;20972;-65
2023/02/09 02:05:21;;;;;;;16.03;10.23;;;-0.30;99.90;;;;;;5036011;27;20539;-66
2023/02/09 02:07:55;;;;;;;15.17;10.23;;;-0.30;99.90;;;;;;5035977;28;20541;-66
2023/02/09 02:10:22;;;;;;;17.10;10.00;;;-0.20;99.90;;;;;;5036606;28;20481;-66
2023/02/09 02:12:53;;;;;;;14.77;9.27;;;-0.20;99.90;;;;;;5036465;28;20468;-66
2023/02/09 02:15:22;;;;;;;15.87;9.80;;;-0.30;99.90;;;;;;5036735;28;20492;-65
2023/02/09 02:18:10;;;;;;;15.40;9.30;;;-0.30;99.90;;;;;;5035735;28;20441;-65
2023/02/09 02:21:11;;;;;;;15.33;10.60;;;-0.30;99.90;;;;;;5034402;28;20816;-65
2023/02/09 02:23:47;;;;;;;14.43;10.30;;;-0.30;99.90;;;;;;5036814;28;20601;-66
2023/02/09 02:26:43;;;;;;;13.43;9.77;;;-0.40;99.90;;;;;;5035785;28;20477;-65
2023/02/09 02:29:39;;;;;;;14.13;9.83;;;-0.30;99.90;;;;;;5036241;28;20502;-66
2023/02/09 02:32:21;;;;;;;16.37;9.30;;;-0.50;99.90;;;;;;5036215;28;20562;-65
2023/02/09 02:34:53;;;;;;;14.30;9.60;;;-0.50;99.90;;;;;;5035660;28;20477;-66
2023/02/09 02:37:46;;;;;;;15.27;9.47;;;-0.50;99.90;;;;;;5036119;28;20563;-65
2023/02/09 02:40:24;;;;;;;14.03;10.00;;;-0.50;99.90;;;;;;5035667;28;20741;-66
2023/02/09 02:42:55;;;;;;;13.43;9.27;;;-0.50;99.90;;;;;;5036000;28;20827;-66
2023/02/09 02:45:38;;;;;;;14.73;9.53;;;-0.50;99.90;;;;;;5035514;28;20971;-65
2023/02/09 02:48:16;;;;;;;17.40;9.93;;;-0.50;99.90;;;;;;5035049;28;20469;-66
2023/02/09 02:50:49;;;;;;;13.70;9.20;;;-0.60;99.90;;;;;;5035630;28;20490;-66
2023/02/09 02:53:19;;;;;;;14.90;9.70;;;-0.60;99.90;;;;;;5035522;28;20529;-66
2023/02/09 02:55:50;;;;;;;15.27;9.93;;;-0.60;99.90;;;;;;5036055;28;20944;-66
2023/02/09 02:58:20;;;;;;;17.47;10.00;;;-0.60;99.90;;;;;;5035457;28;20798;-66
2023/02/09 03:00:52;;;;;;;16.17;10.90;;;-0.60;99.90;;;;;;5035288;28;20593;-66
2023/02/09 03:03:24;;;;;;;14.43;10.67;;;-0.60;99.90;;;;;;5035664;28;20558;-66
2023/02/09 03:05:53;;;;;;;15.70;10.50;;;-0.60;99.90;;;;;;5034381;28;20491;-66
2023/02/09 03:08:20;;;;;;;14.63;9.40;;;-0.70;99.90;;;;;;5035417;28;20561;-66
2023/02/09 03:10:48;;;;;;;15.03;10.27;;;-0.70;99.90;;;;;;5034833;28;20467;-66
2023/02/09 03:13:37;;;;;;;16.03;10.60;;;-0.70;99.90;;;;;;5035457;28;20502;-66
2023/02/09 03:16:15;;;;;;;14.87;11.07;;;-0.70;99.90;;;;;;5035182;28;20459;-66
2023/02/09 03:18:57;;;;;;;15.90;9.97;;;-0.70;99.90;;;;;;5035421;28;20463;-66
2023/02/09 03:21:34;;;;;;;18.63;10.00;;;-0.70;99.90;;;;;;5035903;28;20491;-66
2023/02/09 03:24:05;;;;;;;17.70;11.00;;;-0.60;99.90;;;;;;5035601;28;20847;-66
2023/02/09 03:26:40;;;;;;;14.77;11.20;;;-0.70;99.90;;;;;;5034876;28;20502;-66
2023/02/09 03:29:09;;;;;;;16.43;10.60;;;-0.80;99.90;;;;;;5035708;28;20485;-65
2023/02/09 03:31:38;;;;;;;17.27;9.50;;;-0.80;99.90;;;;;;5035338;28;20477;-65
2023/02/09 03:34:07;;;;;;;17.33;10.43;;;-0.80;99.90;;;;;;5035106;28;20542;-65
2023/02/09 03:36:37;;;;;;;14.77;9.60;;;-0.80;99.90;;;;;;5034610;28;20550;-66
2023/02/09 03:39:05;;;;;;;15.07;10.63;;;-0.90;99.90;;;;;;5035086;28;20523;-65
2023/02/09 03:41:32;;;;;;;15.70;10.87;;;-0.90;99.90;;;;;;5034881;28;20535;-65
2023/02/09 03:46:44;;;;;;;18.13;10.30;;;-0.90;99.90;;;;;;5034310;28;20481;-66
2023/02/09 03:49:14;;;;;;;17.07;11.00;;;-0.90;99.90;;;;;;5035098;28;20463;-66
2023/02/09 03:51:42;;;;;;;18.67;11.20;;;-0.90;99.90;;;;;;5034627;28;20459;-66
2023/02/09 03:54:09;;;;;;;15.40;10.77;;;-1.00;99.90;;;;;;5034570;28;20487;-65
2023/02/09 03:56:37;;;;;;;17.37;10.83;;;-1.00;99.90;;;;;;5034767;28;20534;-66
2023/02/09 03:59:04;;;;;;;16.90;11.30;;;-1.00;99.90;;;;;;5034408;28;20438;-66
2023/02/09 04:01:33;;;;;;;16.53;10.47;;;-1.00;99.90;;;;;;5034668;28;20463;-66
2023/02/09 04:04:01;;;;;;;18.50;11.67;;;-1.10;99.90;;;;;;5032606;28;20471;-65
2023/02/09 04:06:31;;;;;;;19.33;11.53;;;-1.10;99.90;;;;;;5034398;28;20548;-65
2023/02/09 04:08:59;;;;;;;20.80;11.87;;;-1.20;99.90;;;;;;5016485;28;20484;-65
2023/02/09 04:11:27;;;;;;;16.50;10.80;;;-1.20;99.90;;;;;;5015086;28;20976;-66
2023/02/09 04:13:54;;;;;;;21.00;12.30;;;-1.20;99.90;;;;;;5014733;28;20521;-65
2023/02/09 04:16:22;;;;;;;15.07;11.37;;;-1.20;99.90;;;;;;5014426;28;20840;-65
2023/02/09 04:18:49;;;;;;;18.17;11.77;;;-1.30;99.90;;;;;;5014865;28;20555;-65
2023/02/09 04:21:17;;;;;;;13.93;9.60;;;-1.20;99.90;;;;;;5014798;28;20471;-65
2023/02/09 04:23:46;;;;;;;17.00;10.53;;;-1.20;99.90;;;;;;5014712;28;20948;-65
2023/02/09 04:26:14;;;;;;;19.73;10.90;;;-1.20;99.90;;;;;;5014227;28;20491;-65
2023/02/09 04:28:41;;;;;;;16.70;10.67;;;-1.30;99.90;;;;;;5015080;28;20734;-65
2023/02/09 04:31:09;;;;;;;13.57;9.87;;;-1.30;99.90;;;;;;5014844;28;20514;-65
2023/02/09 04:33:37;;;;;;;16.07;10.80;;;-1.40;99.90;;;;;;5017024;28;20763;-65
2023/02/09 04:36:05;;;;;;;16.77;11.03;;;-1.40;99.90;;;;;;5033128;28;20542;-66
2023/02/09 04:38:33;;;;;;;16.90;12.10;;;-1.40;99.90;;;;;;5034379;28;20513;-65
2023/02/09 04:41:04;;;;;;;15.17;9.50;;;-1.40;99.90;;;;;;5033440;28;20470;-66
2023/02/09 04:43:31;;;;;;;17.40;12.00;;;-1.30;99.90;;;;;;5036525;28;20942;-66
2023/02/09 04:45:59;;;;;;;18.43;12.27;;;-1.40;99.90;;;;;;5037051;28;20564;-66
2023/02/09 04:48:28;;;;;;;16.27;12.23;;;-1.50;99.90;;;;;;5037234;28;20473;-66
2023/02/09 04:50:56;;;;;;;15.70;10.90;;;-1.50;99.90;;;;;;5037550;28;20438;-66
2023/02/09 04:53:24;;;;;;;13.93;10.73;;;-1.50;99.90;;;;;;5037164;28;20529;-66
2023/02/09 04:55:52;;;;;;;16.00;11.67;;;-1.50;99.90;;;;;;5037079;28;20438;-65
2023/02/09 05:01:07;;;;;;;19.07;12.73;;;-1.60;99.90;;;;;;5046223;27;20470;-66
2023/02/09 05:03:35;;;;;;;17.10;10.87;;;-1.60;99.90;;;;;;5042315;27;20896;-66
2023/02/09 05:06:05;;;;;;;19.63;11.03;;;-1.60;99.90;;;;;;5036458;27;20811;-65
2023/02/09 05:08:33;;;;;;;21.00;11.40;;;-1.60;99.90;;;;;;5039717;27;20455;-66
2023/02/09 05:11:00;;;;;;;15.60;10.60;;;-1.60;99.90;;;;;;5040617;27;20467;-66
2023/02/09 05:13:29;;;;;;;18.40;11.33;;;-1.60;99.90;;;;;;5036863;28;20523;-66
2023/02/09 05:15:56;;;;;;;22.57;12.40;;;-1.60;99.90;;;;;;5044850;27;20553;-65
2023/02/09 05:18:25;;;;;;;16.67;11.80;;;-1.60;99.90;;;;;;5034752;28;20473;-66
2023/02/09 05:20:53;;;;;;;18.57;11.10;;;-1.70;99.90;;;;;;5049214;27;20463;-66
2023/02/09 05:23:20;;;;;;;18.77;12.77;;;-1.60;99.90;;;;;;5034859;28;20467;-66
2023/02/09 05:25:48;;;;;;;19.50;11.83;;;-1.70;99.90;;;;;;5035953;28;20598;-66
2023/02/09 05:28:15;;;;;;;17.83;11.63;;;-1.70;99.90;;;;;;5037256;28;20471;-65
2023/02/09 05:30:44;;;;;;;19.47;13.03;;;-1.70;99.90;;;;;;5036143;28;20464;-65
2023/02/09 05:33:12;;;;;;;20.27;13.17;;;-1.70;99.90;;;;;;5033002;28;20462;-65
2023/02/09 05:35:39;;;;;;;16.17;11.57;;;-1.70;99.90;;;;;;5035634;28;20483;-65
2023/02/09 05:38:06;;;;;;;19.90;12.10;;;-1.80;99.90;;;;;;5035718;28;20621;-66
2023/02/09 05:40:34;;;;;;;21.10;12.63;;;-1.80;99.90;;;;;;5035182;28;20892;-65
2023/02/09 05:43:02;;;;;;;19.20;13.47;;;-1.80;99.90;;;;;;5036554;28;20441;-66
2023/02/09 05:45:29;;;;;;;20.03;13.40;;;-1.80;99.90;;;;;;5035533;28;20479;-66
2023/02/09 05:47:58;;;;;;;20.17;12.17;;;-1.90;99.90;;;;;;5055016;27;20455;-66
2023/02/09 05:50:26;;;;;;;22.33;12.80;;;-1.90;99.90;;;;;;5122982;27;20547;-66
2023/02/09 05:52:53;;;;;;;20.13;12.63;;;-1.90;99.90;;;;;;5057447;27;20470;-66
2023/02/09 05:55:20;;;;;;;18.63;13.13;;;-1.80;99.90;;;;;;5084252;27;20457;-66
2023/02/09 05:57:48;;;;;;;22.13;14.60;;;-1.80;99.90;;;;;;5092254;27;20485;-66
2023/02/09 06:00:17;;;;;;;25.57;16.27;;;-1.90;99.90;;;;;;5053850;27;20469;-66
2023/02/09 06:02:45;;;;;;;24.50;15.53;;;-2.00;99.90;;;;;;5034725;28;20474;-66
2023/02/09 06:05:14;;;;;;;21.27;15.50;;;-1.90;99.90;;;;;;5034909;28;20466;-66
2023/02/09 06:07:41;;;;;;;24.83;14.53;;;-1.90;99.90;;;;;;5026885;28;20829;-66
2023/02/09 06:10:09;;;;;;;22.97;14.83;;;-2.00;99.90;;;;;;5038276;28;20464;-66
2023/02/09 06:12:37;;;;;;;27.70;18.30;;;-1.90;99.90;;;;;;5026868;28;20471;-66
2023/02/09 06:15:05;;;;;;;22.90;14.27;;;-1.90;99.90;;;;;;5034295;28;20494;-66
2023/02/09 06:17:32;;;;;;;24.83;15.50;;;-1.90;99.90;;;;;;5037558;28;20506;-66
2023/02/09 06:20:00;;;;;;;25.60;16.70;;;-2.00;99.90;;;;;;5034639;28;20552;-66
2023/02/09 06:22:30;;;;;;;24.40;13.90;;;-2.00;99.90;;;;;;5030302;28;20923;-66
2023/02/09 06:24:58;;;;;;;22.73;14.73;;;-2.00;99.90;;;;;;5046146;28;20607;-66
2023/02/09 06:27:25;;;;;;;20.93;13.00;;;-2.00;99.90;;;;;;5035127;28;20515;-66
2023/02/09 06:29:53;;;;;;;24.50;14.90;;;-2.00;99.90;;;;;;5098622;27;20469;-66
2023/02/09 06:32:20;;;;;;;29.30;16.07;;;-2.00;99.90;;;;;;5037814;28;20502;-66
2023/02/09 06:34:47;;;;;;;20.93;13.90;;;-2.00;99.90;;;;;;5035413;28;20489;-66
2023/02/09 06:37:14;;;;;;;24.17;14.30;;;-2.00;99.90;;;;;;5038103;28;20578;-66
2023/02/09 06:39:43;;;;;;;29.47;15.60;;;-2.00;99.90;;;;;;5035384;28;20431;-66
2023/02/09 06:42:11;;;;;;;27.43;17.83;;;-1.90;99.90;;;;;;5033325;28;20460;-63
2023/02/09 06:44:38;;;;;;;23.30;13.87;;;-1.90;99.90;;;;;;5034138;28;20463;-63
2023/02/09 06:47:05;;;;;;;23.30;15.13;;;-1.80;99.90;;;;;;5033545;28;20466;-64
2023/02/09 06:49:33;;;;;;;33.10;17.27;;;-1.80;99.90;;;;;;5032932;28;20452;-64
2023/02/09 06:52:00;;;;;;;31.57;15.70;;;-1.80;99.90;;;;;;5032973;28;20467;-64
2023/02/09 06:54:28;;;;;;;23.80;13.43;;;-1.90;99.90;;;;;;5034503;28;20577;-64
2023/02/09 06:56:58;;;;;;;21.13;14.60;;;-1.90;99.90;;;;;;5034106;28;20429;-64
2023/02/09 06:59:25;;;;;;;19.47;12.93;;;-1.90;99.90;;;;;;5034227;28;20471;-64
2023/02/09 07:01:53;;;;;;;20.07;13.20;;;-1.80;99.90;;;;;;5034382;28;20878;-64
2023/02/09 07:04:20;;;;;;;20.97;13.10;;;-1.90;99.90;;;;;;5032031;28;20472;-64
2023/02/09 07:06:47;;;;;;;20.80;13.83;;;-1.90;99.90;;;;;;5031613;28;20513;-64
2023/02/09 07:09:15;;;;;;;25.90;15.67;;;-2.00;99.90;;;;;;5035230;28;20562;-64
2023/02/09 07:11:42;;;;;;;21.33;13.63;;;-1.90;99.90;;;;;;5035093;28;20514;-63
2023/02/09 07:14:11;;;;;;;19.30;13.47;;;-1.90;99.90;;;;;;5034619;28;20500;-64
2023/02/09 07:16:39;;;;;;;18.40;12.67;;;-1.80;99.90;;;;;;5034377;28;20462;-63
2023/02/09 07:19:06;;;;;;;19.03;14.53;;;-1.80;99.90;;;;;;5034987;28;20550;-64
2023/02/09 07:21:34;;;;;;;19.90;13.80;;;-1.80;99.90;;;;;;5035617;28;20823;-64
2023/02/09 07:24:01;;;;;;;63.63;34.83;;;-1.80;99.90;;;;;;5034558;28;20541;-64
2023/02/09 07:26:28;;;;;;;21.10;13.70;;;-1.80;99.90;;;;;;5034617;28;20830;-63
2023/02/09 07:28:56;;;;;;;20.23;14.43;;;-1.80;99.90;;;;;;5035450;28;20468;-64
2023/02/09 07:31:25;;;;;;;24.50;15.77;;;-1.70;99.90;;;;;;5035761;28;20532;-64
2023/02/09 07:33:54;;;;;;;26.57;14.97;;;-1.70;99.90;;;;;;5035416;28;20862;-64
2023/02/09 07:36:21;;;;;;;27.60;17.23;;;-1.60;99.90;;;;;;5034818;28;20470;-64
2023/02/09 07:38:48;;;;;;;23.07;14.13;;;-1.50;99.90;;;;;;5035234;28;20820;-64
2023/02/09 07:41:18;;;;;;;21.60;15.53;;;-1.40;99.90;;;;;;5034944;28;20495;-63
2023/02/09 07:43:46;;;;;;;23.80;13.60;;;-1.40;99.90;;;;;;5035098;28;20879;-63
2023/02/09 07:46:16;;;;;;;21.43;13.17;;;-1.30;99.90;;;;;;5034515;28;20530;-64
2023/02/09 07:48:46;;;;;;;20.00;12.90;;;-1.30;99.90;;;;;;5034219;28;20471;-64
2023/02/09 07:51:14;;;;;;;20.60;13.83;;;-1.30;99.90;;;;;;5035239;28;20561;-64
2023/02/09 07:53:42;;;;;;;22.50;13.70;;;-1.20;99.90;;;;;;5049068;27;20479;-64
2023/02/09 07:56:09;;;;;;;18.83;12.53;;;-1.20;99.90;;;;;;5138290;27;20493;-64
2023/02/09 07:58:36;;;;;;;22.07;12.77;;;-1.10;99.90;;;;;;5139116;27;20766;-64
2023/02/09 08:01:06;;;;;;;20.00;13.27;;;-1.10;99.90;;;;;;5139061;27;20494;-64
2023/02/09 08:03:35;;;;;;;19.00;13.13;;;-1.00;99.90;;;;;;5139126;27;20459;-63
2023/02/09 08:06:11;;;;;;;17.17;12.37;;;-0.90;99.90;;;;;;5128483;27;20496;-63
2023/02/09 08:08:38;;;;;;;20.63;12.70;;;-0.70;99.90;;;;;;5034775;28;20882;-64
2023/02/09 08:11:06;;;;;;;18.70;12.67;;;-0.70;99.90;;;;;;5034928;28;20533;-63
2023/02/09 08:13:39;;;;;;;21.80;13.53;;;-0.60;99.90;;;;;;5034818;28;20474;-63
2023/02/09 08:16:10;;;;;;;19.20;12.20;;;-0.50;99.90;;;;;;5034215;28;20436;-63
2023/02/09 08:18:41;;;;;;;19.00;13.57;;;-0.40;99.90;;;;;;5032794;28;20475;-63
2023/02/09 08:21:13;;;;;;;20.03;12.70;;;-0.10;99.90;;;;;;5038362;28;20480;-62
2023/02/09 08:23:42;;;;;;;19.63;12.40;;;0.00;99.90;;;;;;5033831;28;20453;-63
2023/02/09 08:26:12;;;;;;;19.27;12.40;;;0.20;99.90;;;;;;5031722;28;20488;-63
2023/02/09 08:28:43;;;;;;;35.20;19.00;;;0.30;99.90;;;;;;5033899;28;20466;-62
2023/02/09 08:31:10;;;;;;;25.60;15.80;;;0.40;99.90;;;;;;5034223;28;20466;-63
2023/02/09 08:33:37;;;;;;;25.67;16.70;;;0.70;99.90;;;;;;5033995;28;20560;-63
2023/02/09 08:36:05;;;;;;;24.57;15.27;;;0.90;99.90;;;;;;5034033;28;20963;-63
2023/02/09 08:38:34;;;;;;;26.03;15.33;;;1.00;99.90;;;;;;5033805;28;20948;-64
2023/02/09 08:41:04;;;;;;;21.07;13.47;;;1.20;99.90;;;;;;5032191;28;20561;-63
2023/02/09 08:43:32;;;;;;;23.27;15.20;;;1.20;99.90;;;;;;5031665;28;20466;-63
2023/02/09 08:46:04;;;;;;;22.27;13.53;;;1.30;99.90;;;;;;5031284;28;20572;-63
2023/02/09 08:48:32;;;;;;;22.60;15.60;;;1.20;99.90;;;;;;5031104;28;20467;-64
2023/02/09 08:50:59;;;;;;;21.13;14.83;;;1.20;99.90;;;;;;5031518;28;20570;-64
2023/02/09 08:53:27;;;;;;;22.53;15.70;;;1.20;99.90;;;;;;5031045;28;20601;-63
2023/02/09 08:55:56;;;;;;;23.70;14.70;;;1.60;99.90;;;;;;5031464;28;20562;-64
2023/02/09 08:58:24;;;;;;;26.53;16.80;;;2.10;99.90;;;;;;5032461;28;20471;-64
2023/02/09 09:00:55;;;;;;;19.20;13.30;;;2.20;99.90;;;;;;5033952;28;21054;-63
2023/02/09 09:03:26;;;;;;;21.10;13.97;;;2.30;99.90;;;;;;5033761;28;20467;-63
2023/02/09 09:05:58;;;;;;;19.33;14.50;;;2.30;99.90;;;;;;5033664;28;20463;-63
2023/02/09 09:08:25;;;;;;;19.53;12.73;;;2.40;99.90;;;;;;5033753;28;20467;-63
2023/02/09 09:10:53;;;;;;;21.13;14.27;;;2.50;99.90;;;;;;5033440;28;20524;-64
2023/02/09 09:13:23;;;;;;;22.53;14.10;;;2.70;99.90;;;;;;5033204;28;20514;-64
2023/02/09 09:15:50;;;;;;;22.87;14.03;;;2.90;99.90;;;;;;5033451;28;20807;-62
2023/02/09 09:18:17;;;;;;;18.87;13.40;;;3.20;99.90;;;;;;5033284;28;20459;-63
2023/02/09 09:20:44;;;;;;;21.83;14.83;;;3.30;99.90;;;;;;5033478;28;20912;-63
2023/02/09 09:23:12;;;;;;;21.37;14.43;;;3.60;99.90;;;;;;5033660;28;20952;-64
2023/02/09 09:25:39;;;;;;;19.90;13.50;;;3.70;99.90;;;;;;5033751;28;20499;-63
2023/02/09 09:28:07;;;;;;;20.43;13.53;;;3.80;99.90;;;;;;5033518;28;20499;-63
2023/02/09 09:30:36;;;;;;;19.00;14.20;;;4.00;99.90;;;;;;5035699;28;20542;-63
2023/02/09 09:33:04;;;;;;;19.57;13.40;;;4.10;99.90;;;;;;5036650;28;20471;-63
2023/02/09 09:35:32;;;;;;;20.30;12.63;;;4.30;99.90;;;;;;5036384;28;20546;-64
2023/02/09 09:38:00;;;;;;;15.10;12.33;;;4.20;99.90;;;;;;5035871;28;20838;-63
2023/02/09 09:40:30;;;;;;;16.90;12.30;;;4.30;99.90;;;;;;5035565;28;20467;-63
2023/02/09 09:42:59;;;;;;;16.70;12.10;;;4.30;99.90;;;;;;5036615;28;20846;-62
2023/02/09 09:45:29;;;;;;;18.70;14.10;;;3.90;99.90;;;;;;5035586;28;20554;-63
2023/02/09 09:47:58;;;;;;;20.80;13.90;;;3.90;99.90;;;;;;5036396;28;20590;-63
2023/02/09 09:50:28;;;;;;;16.43;12.87;;;4.30;99.90;;;;;;5036627;28;20923;-63
2023/02/09 09:53:01;;;;;;;21.60;16.23;;;4.20;99.90;;;;;;5036621;28;20557;-63
2023/02/09 09:55:30;;;;;;;21.60;13.70;;;4.40;99.90;;;;;;5036585;28;20910;-63
2023/02/09 09:58:02;;;;;;;19.70;13.23;;;4.40;99.90;;;;;;5034148;28;20467;-63
2023/02/09 10:00:34;;;;;;;18.20;13.13;;;4.40;99.90;;;;;;5036387;28;20499;-64
2023/02/09 10:03:03;;;;;;;18.70;12.07;;;4.40;99.90;;;;;;5036715;28;20495;-63
2023/02/09 10:05:37;;;;;;;16.73;12.10;;;4.20;99.90;;;;;;5036401;28;20908;-63
2023/02/09 10:08:12;;;;;;;16.87;12.10;;;4.20;99.90;;;;;;5034721;28;20490;-64
2023/02/09 10:10:45;;;;;;;21.40;13.27;;;4.30;99.90;;;;;;5034769;28;20471;-63
2023/02/09 10:13:19;;;;;;;17.90;12.60;;;4.50;99.90;;;;;;5036608;28;20819;-63
2023/02/09 10:15:48;;;;;;;18.80;12.40;;;4.60;99.90;;;;;;5035498;28;20463;-63
2023/02/09 10:18:20;;;;;;;17.83;12.80;;;4.50;99.90;;;;;;5036602;28;20459;-63
2023/02/09 10:20:49;;;;;;;17.87;11.70;;;4.50;99.90;;;;;;5032593;28;20463;-63
2023/02/09 10:23:25;;;;;;;17.40;12.13;;;4.70;99.90;;;;;;5032536;28;20542;-63
2023/02/09 10:25:59;;;;;;;16.13;12.57;;;4.70;99.90;;;;;;5033894;28;20463;-63
2023/02/09 10:28:28;;;;;;;23.37;14.00;;;4.90;99.90;;;;;;5029146;28;20501;-63
2023/02/09 10:30:58;;;;;;;16.43;11.70;;;5.10;99.90;;;;;;5030054;28;20469;-63
2023/02/09 10:33:28;;;;;;;16.60;12.37;;;5.20;99.90;;;;;;5035776;28;20557;-63
2023/02/09 10:35:58;;;;;;;17.27;12.60;;;5.40;99.90;;;;;;5036101;28;20459;-63
2023/02/09 10:38:30;;;;;;;17.10;13.10;;;5.60;99.90;;;;;;5035040;28;20456;-63
2023/02/09 10:41:00;;;;;;;17.87;12.77;;;5.60;99.90;;;;;;5033644;28;20459;-63
2023/02/09 10:43:30;;;;;;;17.23;12.60;;;6.10;99.90;;;;;;5033629;28;20566;-62
2023/02/09 10:46:00;;;;;;;16.53;13.40;;;5.90;99.90;;;;;;5032400;28;20451;-61
2023/02/09 10:48:39;;;;;;;17.93;11.63;;;5.70;99.90;;;;;;5024698;28;20541;-62
2023/02/09 10:51:08;;;;;;;15.73;11.43;;;5.70;99.90;;;;;;5019721;28;20464;-63
2023/02/09 10:53:38;;;;;;;18.83;12.97;;;5.60;99.90;;;;;;5022301;28;20503;-62
2023/02/09 10:56:07;;;;;;;19.60;12.57;;;5.70;99.90;;;;;;5012847;28;20472;-63
2023/02/09 10:58:36;;;;;;;16.23;11.90;;;5.70;99.90;;;;;;5013328;28;20495;-63
2023/02/09 11:01:17;;;;;;;15.53;12.40;;;6.00;99.90;;;;;;5017500;28;20444;-62
2023/02/09 11:04:00;;;;;;;17.80;12.33;;;5.70;99.90;;;;;;5033722;28;20455;-61
2023/02/09 11:06:28;;;;;;;15.80;11.93;;;5.70;99.90;;;;;;5033301;28;20762;-63
2023/02/09 11:09:01;;;;;;;16.33;11.13;;;5.80;99.90;;;;;;5039713;27;20548;-63
2023/02/09 11:11:32;;;;;;;18.63;12.40;;;6.20;99.90;;;;;;5032328;28;20473;-62
2023/02/09 11:14:00;;;;;;;18.10;12.10;;;6.30;99.90;;;;;;5030225;28;20916;-61
2023/02/09 11:17:00;;;;;;;20.50;13.00;;;6.40;99.90;;;;;;5030720;28;20438;-62
2023/02/09 11:19:51;;;;;;;16.73;11.70;;;6.30;99.90;;;;;;5033526;28;20456;-63
2023/02/09 11:22:26;;;;;;;16.20;11.30;;;6.30;99.90;;;;;;5027989;28;20473;-61
2023/02/09 11:25:02;;;;;;;16.03;12.47;;;6.30;99.90;;;;;;5033293;28;20553;-61
2023/02/09 11:27:49;;;;;;;16.10;11.70;;;6.30;99.90;;;;;;5033570;28;20499;-62
2023/02/09 11:30:27;;;;;;;15.33;10.60;;;6.30;99.90;;;;;;5033357;28;20855;-62
2023/02/09 11:33:01;;;;;;;16.43;11.90;;;6.30;99.90;;;;;;5032732;28;20738;-62
2023/02/09 11:35:44;;;;;;;15.40;11.73;;;6.20;99.90;;;;;;5033514;28;20473;-62
2023/02/09 11:38:15;;;;;;;15.67;11.70;;;6.40;99.90;;;;;;5032733;28;20955;-62
2023/02/09 11:40:46;;;;;;;13.57;11.30;;;6.60;99.90;;;;;;5033181;28;20459;-62
2023/02/09 11:43:21;;;;;;;16.03;11.20;;;6.60;99.90;;;;;;5024710;28;20471;-62
2023/02/09 11:45:50;;;;;;;14.87;11.83;;;6.80;99.90;;;;;;5034299;28;20470;-62
2023/02/09 11:48:24;;;;;;;18.77;12.00;;;6.80;99.90;;;;;;5043369;27;20594;-62
2023/02/09 11:51:03;;;;;;;17.00;11.90;;;6.70;99.90;;;;;;5031314;28;20459;-62
2023/02/09 11:53:41;;;;;;;17.07;12.73;;;6.60;99.90;;;;;;5029849;28;20803;-62
2023/02/09 11:56:11;;;;;;;18.63;12.47;;;6.70;99.90;;;;;;5030835;28;20467;-62
2023/02/09 11:58:46;;;;;;;25.73;17.70;;;6.60;99.90;;;;;;5035519;27;20452;-62
2023/02/09 12:01:27;;;;;;;26.30;17.60;;;6.90;99.90;;;;;;5034076;28;20459;-60
2023/02/09 12:04:01;;;;;;;38.70;23.47;;;6.90;99.90;;;;;;5030365;28;20922;-63
2023/02/09 12:06:36;;;;;;;36.03;21.37;;;7.00;99.90;;;;;;5033264;28;20918;-63
2023/02/09 12:09:27;;;;;;;30.30;19.17;;;7.20;99.90;;;;;;5033753;28;20547;-62
2023/02/09 12:12:04;;;;;;;35.80;23.90;;;7.30;99.90;;;;;;5030686;28;20482;-61
2023/02/09 12:14:58;;;;;;;20.33;14.53;;;7.10;99.90;;;;;;5033433;28;20558;-62
2023/02/09 12:17:33;;;;;;;23.67;16.70;;;7.10;99.90;;;;;;5026342;28;20759;-63
2023/02/09 12:20:02;;;;;;;21.00;15.27;;;7.20;99.90;;;;;;5033997;28;20458;-62
2023/02/09 12:22:52;;;;;;;17.67;14.13;;;7.20;99.90;;;;;;5034223;28;20766;-62
2023/02/09 12:25:32;;;;;;;25.80;17.30;;;7.00;99.90;;;;;;5033708;28;20485;-63
2023/02/09 12:28:32;;;;;;;19.00;14.60;;;7.20;99.90;;;;;;5033729;28;20474;-62
2023/02/09 12:31:08;;;;;;;26.00;19.90;;;7.40;99.90;;;;;;5030284;28;20920;-62
2023/02/09 12:33:37;;;;;;;16.17;12.70;;;7.40;99.90;;;;;;5031768;28;20459;-62
2023/02/09 12:36:24;;;;;;;15.33;11.80;;;7.40;99.90;;;;;;5032521;28;20941;-63
2023/02/09 12:39:21;;;;;;;15.87;12.50;;;7.80;99.90;;;;;;5029145;28;20614;-60
2023/02/09 12:42:25;;;;;;;18.00;13.40;;;7.50;99.90;;;;;;5031570;28;20486;-62
2023/02/09 12:44:59;;;;;;;22.20;16.33;;;7.40;99.90;;;;;;5031628;28;20433;-62
2023/02/09 12:47:55;;;;;;;19.87;13.43;;;7.40;99.90;;;;;;5031237;28;20771;-61
2023/02/09 12:50:50;;;;;;;19.00;13.30;;;7.20;99.90;;;;;;5030225;28;20471;-62
2023/02/09 12:53:46;;;;;;;13.70;11.60;;;7.30;99.90;;;;;;5025132;28;20585;-60
2023/02/09 12:56:31;;;;;;;13.53;11.23;;;7.50;99.90;;;;;;5027450;28;20793;-56
2023/02/09 12:59:18;;;;;;;13.33;10.87;;;7.80;99.90;;;;;;5029541;28;20447;-60